sensor_id;sensor_type;location;lat;lon;timestamp;P1;durP1;ratioP1;P2;durP2;ratioP2
68821;SDS011;55834;50.870;4.606;2023-10-09T00:00:10;7.25;;;3.90;;
68821;SDS011;55834;50.870;4.606;2023-10-09T00:02:55;10.70;;;5.28;;
68821;SDS011;55834;50.870;4.606;2023-10-09T00:05:20;6.07;;;3.70;;
68821;SDS011;55834;50.870;4.606;2023-10-09T00:07:56;6.00;;;4.03;;
68821;SDS011;55834;50.870;4.606;2023-10-09T00:10:22;9.65;;;4.40;;
68821;SDS011;55834;50.870;4.606;2023-10-09T00:12:50;6.25;;;4.38;;
68821;SDS011;55834;50.870;4.606;2023-10-09T00:15:15;6.75;;;4.35;;
68821;SDS011;55834;50.870;4.606;2023-10-09T00:17:43;5.65;;;4.30;;
68821;SDS011;55834;50.870;4.606;2023-10-09T00:20:12;6.10;;;4.13;;
68821;SDS011;55834;50.870;4.606;2023-10-09T00:22:43;9.40;;;5.07;;
68821;SDS011;55834;50.870;4.606;2023-10-09T00:25:11;8.32;;;4.53;;
68821;SDS011;55834;50.870;4.606;2023-10-09T00:27:37;7.35;;;4.13;;
68821;SDS011;55834;50.870;4.606;2023-10-09T00:30:08;7.53;;;4.18;;
68821;SDS011;55834;50.870;4.606;2023-10-09T00:32:46;8.38;;;5.05;;
68821;SDS011;55834;50.870;4.606;2023-10-09T00:35:26;5.28;;;3.40;;
68821;SDS011;55834;50.870;4.606;2023-10-09T00:38:07;8.98;;;4.47;;
68821;SDS011;55834;50.870;4.606;2023-10-09T00:40:45;7.78;;;4.15;;
68821;SDS011;55834;50.870;4.606;2023-10-09T00:43:15;6.53;;;3.72;;
68821;SDS011;55834;50.870;4.606;2023-10-09T00:45:44;5.82;;;3.72;;
68821;SDS011;55834;50.870;4.606;2023-10-09T00:48:11;7.07;;;3.92;;
68821;SDS011;55834;50.870;4.606;2023-10-09T00:50:48;7.15;;;3.83;;
68821;SDS011;55834;50.870;4.606;2023-10-09T00:53:18;6.70;;;3.88;;
68821;SDS011;55834;50.870;4.606;2023-10-09T00:55:55;5.45;;;3.78;;
68821;SDS011;55834;50.870;4.606;2023-10-09T00:58:23;9.05;;;4.28;;
68821;SDS011;55834;50.870;4.606;2023-10-09T01:00:51;6.53;;;3.90;;
68821;SDS011;55834;50.870;4.606;2023-10-09T01:03:18;6.82;;;4.32;;
68821;SDS011;55834;50.870;4.606;2023-10-09T01:05:46;5.15;;;3.78;;
68821;SDS011;55834;50.870;4.606;2023-10-09T01:08:28;6.22;;;3.67;;
68821;SDS011;55834;50.870;4.606;2023-10-09T01:13:38;5.65;;;3.30;;
68821;SDS011;55834;50.870;4.606;2023-10-09T01:16:14;7.03;;;4.47;;
68821;SDS011;55834;50.870;4.606;2023-10-09T01:18:44;6.35;;;3.45;;
68821;SDS011;55834;50.870;4.606;2023-10-09T01:21:17;7.18;;;3.58;;
68821;SDS011;55834;50.870;4.606;2023-10-09T01:23:46;8.32;;;4.53;;
68821;SDS011;55834;50.870;4.606;2023-10-09T01:26:27;5.30;;;3.38;;
68821;SDS011;55834;50.870;4.606;2023-10-09T01:29:07;6.65;;;3.72;;
68821;SDS011;55834;50.870;4.606;2023-10-09T01:31:43;5.93;;;4.63;;
68821;SDS011;55834;50.870;4.606;2023-10-09T01:34:30;5.82;;;3.65;;
68821;SDS011;55834;50.870;4.606;2023-10-09T01:37:05;6.85;;;4.07;;
68821;SDS011;55834;50.870;4.606;2023-10-09T01:39:37;5.35;;;3.72;;
68821;SDS011;55834;50.870;4.606;2023-10-09T01:42:08;7.35;;;3.72;;
68821;SDS011;55834;50.870;4.606;2023-10-09T01:44:35;6.78;;;4.00;;
68821;SDS011;55834;50.870;4.606;2023-10-09T01:47:04;6.40;;;3.50;;
68821;SDS011;55834;50.870;4.606;2023-10-09T01:49:36;7.10;;;3.47;;
68821;SDS011;55834;50.870;4.606;2023-10-09T01:52:08;6.22;;;3.85;;
68821;SDS011;55834;50.870;4.606;2023-10-09T01:54:37;7.55;;;4.43;;
68821;SDS011;55834;50.870;4.606;2023-10-09T01:57:04;6.80;;;3.85;;
68821;SDS011;55834;50.870;4.606;2023-10-09T01:59:39;7.38;;;4.28;;
68821;SDS011;55834;50.870;4.606;2023-10-09T02:02:17;5.18;;;3.75;;
68821;SDS011;55834;50.870;4.606;2023-10-09T02:04:58;6.97;;;3.80;;
68821;SDS011;55834;50.870;4.606;2023-10-09T02:07:56;8.23;;;4.70;;
68821;SDS011;55834;50.870;4.606;2023-10-09T02:15:32;7.30;;;4.05;;
68821;SDS011;55834;50.870;4.606;2023-10-09T02:18:07;7.38;;;3.30;;
68821;SDS011;55834;50.870;4.606;2023-10-09T02:23:30;6.72;;;3.70;;
68821;SDS011;55834;50.870;4.606;2023-10-09T02:26:15;4.38;;;3.35;;
68821;SDS011;55834;50.870;4.606;2023-10-09T02:28:45;6.43;;;3.78;;
68821;SDS011;55834;50.870;4.606;2023-10-09T02:31:23;6.47;;;3.40;;
68821;SDS011;55834;50.870;4.606;2023-10-09T02:33:51;5.70;;;3.22;;
68821;SDS011;55834;50.870;4.606;2023-10-09T02:36:19;7.30;;;4.35;;
68821;SDS011;55834;50.870;4.606;2023-10-09T02:38:45;6.80;;;3.70;;
68821;SDS011;55834;50.870;4.606;2023-10-09T02:41:13;6.47;;;3.97;;
68821;SDS011;55834;50.870;4.606;2023-10-09T02:43:40;7.22;;;3.53;;
68821;SDS011;55834;50.870;4.606;2023-10-09T02:46:10;6.85;;;4.65;;
68821;SDS011;55834;50.870;4.606;2023-10-09T02:48:55;6.25;;;3.53;;
68821;SDS011;55834;50.870;4.606;2023-10-09T02:51:25;11.65;;;4.63;;
68821;SDS011;55834;50.870;4.606;2023-10-09T02:53:54;6.70;;;3.55;;
68821;SDS011;55834;50.870;4.606;2023-10-09T02:56:23;7.72;;;5.10;;
68821;SDS011;55834;50.870;4.606;2023-10-09T02:59:07;7.80;;;3.88;;
68821;SDS011;55834;50.870;4.606;2023-10-09T03:01:36;6.22;;;3.70;;
68821;SDS011;55834;50.870;4.606;2023-10-09T03:04:05;6.30;;;3.90;;
68821;SDS011;55834;50.870;4.606;2023-10-09T03:06:32;7.63;;;4.28;;
68821;SDS011;55834;50.870;4.606;2023-10-09T03:09:03;10.40;;;3.88;;
68821;SDS011;55834;50.870;4.606;2023-10-09T03:11:43;7.53;;;5.45;;
68821;SDS011;55834;50.870;4.606;2023-10-09T03:14:09;7.53;;;3.92;;
68821;SDS011;55834;50.870;4.606;2023-10-09T03:16:35;7.70;;;4.13;;
68821;SDS011;55834;50.870;4.606;2023-10-09T03:19:01;9.02;;;4.55;;
68821;SDS011;55834;50.870;4.606;2023-10-09T03:21:28;9.57;;;5.28;;
68821;SDS011;55834;50.870;4.606;2023-10-09T03:23:53;12.07;;;4.50;;
68821;SDS011;55834;50.870;4.606;2023-10-09T03:26:20;7.47;;;4.68;;
68821;SDS011;55834;50.870;4.606;2023-10-09T03:28:48;6.28;;;4.43;;
68821;SDS011;55834;50.870;4.606;2023-10-09T03:31:14;6.40;;;4.25;;
68821;SDS011;55834;50.870;4.606;2023-10-09T03:33:40;6.90;;;4.30;;
68821;SDS011;55834;50.870;4.606;2023-10-09T03:36:06;7.30;;;4.20;;
68821;SDS011;55834;50.870;4.606;2023-10-09T03:38:34;8.15;;;4.22;;
68821;SDS011;55834;50.870;4.606;2023-10-09T03:41:01;7.80;;;4.00;;
68821;SDS011;55834;50.870;4.606;2023-10-09T03:43:31;7.05;;;4.00;;
68821;SDS011;55834;50.870;4.606;2023-10-09T03:46:02;6.75;;;3.92;;
68821;SDS011;55834;50.870;4.606;2023-10-09T03:48:30;7.30;;;4.25;;
68821;SDS011;55834;50.870;4.606;2023-10-09T03:50:59;7.30;;;4.20;;
68821;SDS011;55834;50.870;4.606;2023-10-09T03:53:34;5.28;;;3.70;;
68821;SDS011;55834;50.870;4.606;2023-10-09T03:56:06;7.97;;;3.30;;
68821;SDS011;55834;50.870;4.606;2023-10-09T03:58:39;7.57;;;4.45;;
68821;SDS011;55834;50.870;4.606;2023-10-09T04:01:16;6.95;;;4.93;;
68821;SDS011;55834;50.870;4.606;2023-10-09T04:03:58;6.55;;;4.35;;
68821;SDS011;55834;50.870;4.606;2023-10-09T04:06:25;6.03;;;3.88;;
68821;SDS011;55834;50.870;4.606;2023-10-09T04:08:55;6.55;;;4.88;;
68821;SDS011;55834;50.870;4.606;2023-10-09T04:11:23;6.72;;;4.03;;
68821;SDS011;55834;50.870;4.606;2023-10-09T04:13:50;6.55;;;4.15;;
68821;SDS011;55834;50.870;4.606;2023-10-09T04:16:17;6.25;;;4.07;;
68821;SDS011;55834;50.870;4.606;2023-10-09T04:19:01;6.28;;;4.22;;
68821;SDS011;55834;50.870;4.606;2023-10-09T04:21:31;9.38;;;5.18;;
68821;SDS011;55834;50.870;4.606;2023-10-09T04:24:00;12.57;;;5.20;;
68821;SDS011;55834;50.870;4.606;2023-10-09T04:26:39;10.75;;;5.15;;
68821;SDS011;55834;50.870;4.606;2023-10-09T04:29:10;10.43;;;5.65;;
68821;SDS011;55834;50.870;4.606;2023-10-09T04:31:43;7.20;;;4.88;;
68821;SDS011;55834;50.870;4.606;2023-10-09T04:36:49;8.27;;;3.95;;
68821;SDS011;55834;50.870;4.606;2023-10-09T04:39:16;8.27;;;5.22;;
68821;SDS011;55834;50.870;4.606;2023-10-09T04:42:01;10.90;;;5.60;;
68821;SDS011;55834;50.870;4.606;2023-10-09T04:45:02;15.30;;;6.85;;
68821;SDS011;55834;50.870;4.606;2023-10-09T04:47:28;15.38;;;6.95;;
68821;SDS011;55834;50.870;4.606;2023-10-09T04:50:14;9.23;;;5.60;;
68821;SDS011;55834;50.870;4.606;2023-10-09T04:53:00;8.80;;;6.07;;
68821;SDS011;55834;50.870;4.606;2023-10-09T04:55:41;7.65;;;5.53;;
68821;SDS011;55834;50.870;4.606;2023-10-09T04:58:19;9.85;;;5.28;;
68821;SDS011;55834;50.870;4.606;2023-10-09T05:00:51;9.13;;;5.10;;
68821;SDS011;55834;50.870;4.606;2023-10-09T05:03:23;7.72;;;4.32;;
68821;SDS011;55834;50.870;4.606;2023-10-09T05:05:51;6.63;;;3.90;;
68821;SDS011;55834;50.870;4.606;2023-10-09T05:08:45;8.57;;;4.90;;
68821;SDS011;55834;50.870;4.606;2023-10-09T05:11:11;9.15;;;4.43;;
68821;SDS011;55834;50.870;4.606;2023-10-09T05:13:55;9.90;;;4.40;;
68821;SDS011;55834;50.870;4.606;2023-10-09T05:16:36;7.60;;;4.53;;
68821;SDS011;55834;50.870;4.606;2023-10-09T05:19:03;6.15;;;3.70;;
68821;SDS011;55834;50.870;4.606;2023-10-09T05:24:02;8.55;;;5.05;;
68821;SDS011;55834;50.870;4.606;2023-10-09T05:26:55;8.57;;;5.15;;
68821;SDS011;55834;50.870;4.606;2023-10-09T05:29:40;7.13;;;4.30;;
68821;SDS011;55834;50.870;4.606;2023-10-09T05:32:24;6.70;;;4.18;;
68821;SDS011;55834;50.870;4.606;2023-10-09T05:35:00;10.13;;;5.95;;
68821;SDS011;55834;50.870;4.606;2023-10-09T05:37:26;9.00;;;5.15;;
68821;SDS011;55834;50.870;4.606;2023-10-09T05:42:42;8.40;;;4.88;;
68821;SDS011;55834;50.870;4.606;2023-10-09T05:45:09;7.03;;;4.53;;
68821;SDS011;55834;50.870;4.606;2023-10-09T05:47:57;8.93;;;4.60;;
68821;SDS011;55834;50.870;4.606;2023-10-09T05:52:52;12.00;;;4.90;;
68821;SDS011;55834;50.870;4.606;2023-10-09T05:55:19;6.70;;;4.55;;
68821;SDS011;55834;50.870;4.606;2023-10-09T05:58:04;7.75;;;4.50;;
68821;SDS011;55834;50.870;4.606;2023-10-09T06:00:49;7.70;;;4.32;;
68821;SDS011;55834;50.870;4.606;2023-10-09T06:03:50;7.07;;;4.43;;
68821;SDS011;55834;50.870;4.606;2023-10-09T06:06:42;7.28;;;4.80;;
68821;SDS011;55834;50.870;4.606;2023-10-09T06:09:10;7.32;;;4.72;;
68821;SDS011;55834;50.870;4.606;2023-10-09T06:11:43;9.52;;;5.20;;
68821;SDS011;55834;50.870;4.606;2023-10-09T06:14:18;9.80;;;5.43;;
68821;SDS011;55834;50.870;4.606;2023-10-09T06:17:10;11.27;;;4.63;;
68821;SDS011;55834;50.870;4.606;2023-10-09T06:19:38;10.18;;;4.82;;
68821;SDS011;55834;50.870;4.606;2023-10-09T06:22:10;8.02;;;4.80;;
68821;SDS011;55834;50.870;4.606;2023-10-09T06:24:44;7.80;;;4.72;;
68821;SDS011;55834;50.870;4.606;2023-10-09T06:27:10;8.67;;;4.53;;
68821;SDS011;55834;50.870;4.606;2023-10-09T06:29:40;8.05;;;5.10;;
68821;SDS011;55834;50.870;4.606;2023-10-09T06:32:10;7.15;;;4.28;;
68821;SDS011;55834;50.870;4.606;2023-10-09T06:37:16;11.27;;;4.82;;
68821;SDS011;55834;50.870;4.606;2023-10-09T06:39:59;8.20;;;4.22;;
68821;SDS011;55834;50.870;4.606;2023-10-09T06:42:44;8.98;;;4.60;;
68821;SDS011;55834;50.870;4.606;2023-10-09T06:45:16;10.20;;;5.93;;
68821;SDS011;55834;50.870;4.606;2023-10-09T06:47:48;16.45;;;6.00;;
68821;SDS011;55834;50.870;4.606;2023-10-09T06:50:21;10.20;;;6.18;;
68821;SDS011;55834;50.870;4.606;2023-10-09T06:52:47;14.15;;;6.00;;
68821;SDS011;55834;50.870;4.606;2023-10-09T06:55:25;10.40;;;6.20;;
68821;SDS011;55834;50.870;4.606;2023-10-09T06:57:59;7.40;;;4.57;;
68821;SDS011;55834;50.870;4.606;2023-10-09T07:00:29;8.68;;;4.97;;
68821;SDS011;55834;50.870;4.606;2023-10-09T07:03:13;8.70;;;5.30;;
68821;SDS011;55834;50.870;4.606;2023-10-09T07:05:39;8.48;;;5.07;;
68821;SDS011;55834;50.870;4.606;2023-10-09T07:08:25;8.63;;;4.22;;
68821;SDS011;55834;50.870;4.606;2023-10-09T07:10:57;7.47;;;4.97;;
68821;SDS011;55834;50.870;4.606;2023-10-09T07:13:48;9.57;;;5.95;;
68821;SDS011;55834;50.870;4.606;2023-10-09T07:16:21;9.73;;;5.90;;
68821;SDS011;55834;50.870;4.606;2023-10-09T07:18:54;10.25;;;5.75;;
68821;SDS011;55834;50.870;4.606;2023-10-09T07:21:34;10.02;;;5.90;;
68821;SDS011;55834;50.870;4.606;2023-10-09T07:24:00;10.05;;;5.97;;
68821;SDS011;55834;50.870;4.606;2023-10-09T07:26:39;9.48;;;4.97;;
68821;SDS011;55834;50.870;4.606;2023-10-09T07:29:18;10.23;;;5.25;;
68821;SDS011;55834;50.870;4.606;2023-10-09T07:31:48;15.35;;;6.95;;
68821;SDS011;55834;50.870;4.606;2023-10-09T07:34:23;11.20;;;6.47;;
68821;SDS011;55834;50.870;4.606;2023-10-09T07:37:18;10.38;;;6.13;;
68821;SDS011;55834;50.870;4.606;2023-10-09T07:40:03;15.30;;;6.13;;
68821;SDS011;55834;50.870;4.606;2023-10-09T07:42:32;11.60;;;6.72;;
68821;SDS011;55834;50.870;4.606;2023-10-09T07:45:01;10.30;;;5.75;;
68821;SDS011;55834;50.870;4.606;2023-10-09T07:47:56;9.93;;;5.70;;
68821;SDS011;55834;50.870;4.606;2023-10-09T07:50:24;12.25;;;6.55;;
68821;SDS011;55834;50.870;4.606;2023-10-09T07:52:55;10.20;;;5.45;;
68821;SDS011;55834;50.870;4.606;2023-10-09T07:55:40;8.23;;;5.57;;
68821;SDS011;55834;50.870;4.606;2023-10-09T07:58:10;10.20;;;5.63;;
68821;SDS011;55834;50.870;4.606;2023-10-09T08:00:37;11.07;;;7.10;;
68821;SDS011;55834;50.870;4.606;2023-10-09T08:03:23;10.93;;;6.43;;
68821;SDS011;55834;50.870;4.606;2023-10-09T08:05:57;12.40;;;6.88;;
68821;SDS011;55834;50.870;4.606;2023-10-09T08:11:31;10.23;;;6.25;;
68821;SDS011;55834;50.870;4.606;2023-10-09T08:14:06;8.45;;;5.78;;
68821;SDS011;55834;50.870;4.606;2023-10-09T08:16:50;10.93;;;6.97;;
68821;SDS011;55834;50.870;4.606;2023-10-09T08:19:36;11.70;;;6.82;;
68821;SDS011;55834;50.870;4.606;2023-10-09T08:22:17;12.88;;;6.55;;
68821;SDS011;55834;50.870;4.606;2023-10-09T08:24:49;9.40;;;5.22;;
68821;SDS011;55834;50.870;4.606;2023-10-09T08:27:21;12.43;;;6.10;;
68821;SDS011;55834;50.870;4.606;2023-10-09T08:29:59;14.13;;;6.75;;
68821;SDS011;55834;50.870;4.606;2023-10-09T08:32:57;11.68;;;6.05;;
68821;SDS011;55834;50.870;4.606;2023-10-09T08:35:38;9.65;;;6.07;;
68821;SDS011;55834;50.870;4.606;2023-10-09T08:38:12;12.65;;;6.57;;
68821;SDS011;55834;50.870;4.606;2023-10-09T08:40:41;10.35;;;6.13;;
68821;SDS011;55834;50.870;4.606;2023-10-09T08:45:40;10.40;;;6.43;;
68821;SDS011;55834;50.870;4.606;2023-10-09T08:48:10;10.77;;;6.28;;
68821;SDS011;55834;50.870;4.606;2023-10-09T08:50:43;12.23;;;6.22;;
68821;SDS011;55834;50.870;4.606;2023-10-09T08:53:10;7.97;;;5.55;;
68821;SDS011;55834;50.870;4.606;2023-10-09T08:55:39;10.35;;;6.18;;
68821;SDS011;55834;50.870;4.606;2023-10-09T09:00:51;12.13;;;6.47;;
68821;SDS011;55834;50.870;4.606;2023-10-09T09:03:20;12.65;;;6.75;;
68821;SDS011;55834;50.870;4.606;2023-10-09T09:06:01;10.23;;;6.25;;
68821;SDS011;55834;50.870;4.606;2023-10-09T09:08:28;8.93;;;5.25;;
68821;SDS011;55834;50.870;4.606;2023-10-09T09:10:58;12.30;;;6.13;;
68821;SDS011;55834;50.870;4.606;2023-10-09T09:13:36;12.68;;;6.38;;
68821;SDS011;55834;50.870;4.606;2023-10-09T09:16:16;8.38;;;4.97;;
68821;SDS011;55834;50.870;4.606;2023-10-09T09:18:58;9.15;;;6.05;;
68821;SDS011;55834;50.870;4.606;2023-10-09T09:21:50;9.75;;;5.03;;
68821;SDS011;55834;50.870;4.606;2023-10-09T09:24:21;11.82;;;5.53;;
68821;SDS011;55834;50.870;4.606;2023-10-09T09:26:47;10.80;;;5.93;;
68821;SDS011;55834;50.870;4.606;2023-10-09T09:29:24;11.05;;;5.03;;
68821;SDS011;55834;50.870;4.606;2023-10-09T09:32:01;9.40;;;4.55;;
68821;SDS011;55834;50.870;4.606;2023-10-09T09:34:48;9.68;;;5.75;;
68821;SDS011;55834;50.870;4.606;2023-10-09T09:37:21;10.90;;;5.28;;
68821;SDS011;55834;50.870;4.606;2023-10-09T09:39:54;9.15;;;5.55;;
68821;SDS011;55834;50.870;4.606;2023-10-09T09:42:20;11.55;;;5.85;;
68821;SDS011;55834;50.870;4.606;2023-10-09T09:44:50;10.52;;;5.03;;
68821;SDS011;55834;50.870;4.606;2023-10-09T09:47:17;10.25;;;4.47;;
68821;SDS011;55834;50.870;4.606;2023-10-09T09:49:50;13.07;;;6.15;;
68821;SDS011;55834;50.870;4.606;2023-10-09T09:52:33;14.30;;;5.70;;
68821;SDS011;55834;50.870;4.606;2023-10-09T09:55:08;14.70;;;7.55;;
68821;SDS011;55834;50.870;4.606;2023-10-09T09:57:40;13.13;;;6.03;;
68821;SDS011;55834;50.870;4.606;2023-10-09T10:00:06;12.15;;;5.75;;
68821;SDS011;55834;50.870;4.606;2023-10-09T10:02:51;9.20;;;5.03;;
68821;SDS011;55834;50.870;4.606;2023-10-09T10:05:21;10.65;;;4.93;;
68821;SDS011;55834;50.870;4.606;2023-10-09T10:07:47;11.63;;;6.15;;
68821;SDS011;55834;50.870;4.606;2023-10-09T10:13:02;13.15;;;5.75;;
68821;SDS011;55834;50.870;4.606;2023-10-09T10:18:22;12.07;;;6.10;;
68821;SDS011;55834;50.870;4.606;2023-10-09T10:23:39;7.68;;;4.75;;
68821;SDS011;55834;50.870;4.606;2023-10-09T10:26:20;11.90;;;6.22;;
68821;SDS011;55834;50.870;4.606;2023-10-09T10:40:03;13.00;;;5.75;;
68821;SDS011;55834;50.870;4.606;2023-10-09T10:42:47;9.95;;;6.15;;
68821;SDS011;55834;50.870;4.606;2023-10-09T10:45:34;12.60;;;6.25;;
68821;SDS011;55834;50.870;4.606;2023-10-09T10:48:08;14.20;;;6.25;;
68821;SDS011;55834;50.870;4.606;2023-10-09T10:50:48;11.05;;;6.57;;
68821;SDS011;55834;50.870;4.606;2023-10-09T10:53:14;8.68;;;5.88;;
68821;SDS011;55834;50.870;4.606;2023-10-09T10:55:59;13.05;;;5.57;;
68821;SDS011;55834;50.870;4.606;2023-10-09T10:58:51;10.52;;;6.00;;
68821;SDS011;55834;50.870;4.606;2023-10-09T11:01:30;9.23;;;6.30;;
68821;SDS011;55834;50.870;4.606;2023-10-09T11:04:36;11.48;;;6.15;;
68821;SDS011;55834;50.870;4.606;2023-10-09T11:07:02;11.77;;;5.85;;
68821;SDS011;55834;50.870;4.606;2023-10-09T11:09:54;10.68;;;6.10;;
68821;SDS011;55834;50.870;4.606;2023-10-09T11:12:29;10.38;;;6.07;;
68821;SDS011;55834;50.870;4.606;2023-10-09T11:15:07;8.23;;;5.47;;
68821;SDS011;55834;50.870;4.606;2023-10-09T11:17:57;9.13;;;5.78;;
68821;SDS011;55834;50.870;4.606;2023-10-09T11:20:30;9.63;;;5.13;;
68821;SDS011;55834;50.870;4.606;2023-10-09T11:22:58;13.63;;;6.05;;
68821;SDS011;55834;50.870;4.606;2023-10-09T11:25:45;12.43;;;6.30;;
68821;SDS011;55834;50.870;4.606;2023-10-09T11:28:21;9.70;;;6.50;;
68821;SDS011;55834;50.870;4.606;2023-10-09T11:31:09;10.80;;;6.28;;
68821;SDS011;55834;50.870;4.606;2023-10-09T11:33:50;11.70;;;6.80;;
68821;SDS011;55834;50.870;4.606;2023-10-09T11:36:20;8.70;;;6.25;;
68821;SDS011;55834;50.870;4.606;2023-10-09T11:38:59;9.57;;;5.45;;
68821;SDS011;55834;50.870;4.606;2023-10-09T11:41:41;11.70;;;6.80;;
68821;SDS011;55834;50.870;4.606;2023-10-09T11:44:06;11.38;;;5.18;;
68821;SDS011;55834;50.870;4.606;2023-10-09T11:46:32;8.23;;;5.90;;
68821;SDS011;55834;50.870;4.606;2023-10-09T11:49:13;8.57;;;5.40;;
68821;SDS011;55834;50.870;4.606;2023-10-09T11:52:06;8.32;;;5.32;;
68821;SDS011;55834;50.870;4.606;2023-10-09T11:54:34;7.07;;;3.97;;
68821;SDS011;55834;50.870;4.606;2023-10-09T11:57:01;8.27;;;4.75;;
68821;SDS011;55834;50.870;4.606;2023-10-09T11:59:27;13.77;;;5.32;;
68821;SDS011;55834;50.870;4.606;2023-10-09T12:01:59;14.70;;;5.55;;
68821;SDS011;55834;50.870;4.606;2023-10-09T12:06:55;8.27;;;4.32;;
68821;SDS011;55834;50.870;4.606;2023-10-09T12:09:34;12.10;;;4.97;;
68821;SDS011;55834;50.870;4.606;2023-10-09T12:12:03;9.25;;;4.93;;
68821;SDS011;55834;50.870;4.606;2023-10-09T12:14:30;7.30;;;5.13;;
68821;SDS011;55834;50.870;4.606;2023-10-09T12:17:01;9.93;;;5.05;;
68821;SDS011;55834;50.870;4.606;2023-10-09T12:19:31;8.50;;;4.82;;
68821;SDS011;55834;50.870;4.606;2023-10-09T12:22:05;8.18;;;5.53;;
68821;SDS011;55834;50.870;4.606;2023-10-09T12:24:31;6.78;;;4.43;;
68821;SDS011;55834;50.870;4.606;2023-10-09T12:26:58;8.07;;;4.47;;
68821;SDS011;55834;50.870;4.606;2023-10-09T12:29:24;11.85;;;4.70;;
68821;SDS011;55834;50.870;4.606;2023-10-09T12:31:55;8.45;;;5.40;;
68821;SDS011;55834;50.870;4.606;2023-10-09T12:34:27;8.70;;;4.45;;
68821;SDS011;55834;50.870;4.606;2023-10-09T12:36:53;9.55;;;5.20;;
68821;SDS011;55834;50.870;4.606;2023-10-09T12:39:20;7.55;;;4.85;;
68821;SDS011;55834;50.870;4.606;2023-10-09T12:41:46;12.43;;;5.55;;
68821;SDS011;55834;50.870;4.606;2023-10-09T12:44:13;8.95;;;4.97;;
68821;SDS011;55834;50.870;4.606;2023-10-09T12:46:47;10.52;;;5.80;;
68821;SDS011;55834;50.870;4.606;2023-10-09T12:49:19;10.85;;;5.80;;
68821;SDS011;55834;50.870;4.606;2023-10-09T12:51:50;11.23;;;5.15;;
68821;SDS011;55834;50.870;4.606;2023-10-09T12:54:18;12.45;;;5.88;;
68821;SDS011;55834;50.870;4.606;2023-10-09T12:56:51;8.73;;;4.80;;
68821;SDS011;55834;50.870;4.606;2023-10-09T12:59:17;14.57;;;5.97;;
68821;SDS011;55834;50.870;4.606;2023-10-09T13:01:44;10.55;;;5.07;;
68821;SDS011;55834;50.870;4.606;2023-10-09T13:04:15;13.27;;;6.10;;
68821;SDS011;55834;50.870;4.606;2023-10-09T13:09:10;10.82;;;5.43;;
68821;SDS011;55834;50.870;4.606;2023-10-09T13:11:36;13.93;;;5.80;;
68821;SDS011;55834;50.870;4.606;2023-10-09T13:14:02;13.63;;;6.65;;
68821;SDS011;55834;50.870;4.606;2023-10-09T13:16:36;12.98;;;7.38;;
68821;SDS011;55834;50.870;4.606;2023-10-09T13:19:02;9.73;;;6.43;;
68821;SDS011;55834;50.870;4.606;2023-10-09T13:21:34;15.85;;;6.32;;
68821;SDS011;55834;50.870;4.606;2023-10-09T13:24:02;14.15;;;6.35;;
68821;SDS011;55834;50.870;4.606;2023-10-09T13:26:28;8.52;;;4.85;;
68821;SDS011;55834;50.870;4.606;2023-10-09T13:29:00;12.80;;;6.93;;
68821;SDS011;55834;50.870;4.606;2023-10-09T13:31:27;13.43;;;6.22;;
68821;SDS011;55834;50.870;4.606;2023-10-09T13:33:56;11.40;;;6.68;;
68821;SDS011;55834;50.870;4.606;2023-10-09T13:36:24;9.10;;;5.47;;
68821;SDS011;55834;50.870;4.606;2023-10-09T13:38:57;9.25;;;5.38;;
68821;SDS011;55834;50.870;4.606;2023-10-09T13:41:43;15.35;;;6.82;;
68821;SDS011;55834;50.870;4.606;2023-10-09T13:44:09;18.77;;;7.73;;
68821;SDS011;55834;50.870;4.606;2023-10-09T13:46:34;11.13;;;6.05;;
68821;SDS011;55834;50.870;4.606;2023-10-09T13:49:06;14.50;;;6.82;;
68821;SDS011;55834;50.870;4.606;2023-10-09T13:51:37;10.27;;;6.10;;
68821;SDS011;55834;50.870;4.606;2023-10-09T13:54:13;10.82;;;5.72;;
68821;SDS011;55834;50.870;4.606;2023-10-09T13:56:46;11.63;;;6.43;;
68821;SDS011;55834;50.870;4.606;2023-10-09T13:59:12;9.65;;;5.88;;
68821;SDS011;55834;50.870;4.606;2023-10-09T14:01:37;9.23;;;5.43;;
68821;SDS011;55834;50.870;4.606;2023-10-09T14:04:04;9.63;;;5.28;;
68821;SDS011;55834;50.870;4.606;2023-10-09T14:06:33;8.43;;;6.05;;
68821;SDS011;55834;50.870;4.606;2023-10-09T14:09:02;10.60;;;5.47;;
68821;SDS011;55834;50.870;4.606;2023-10-09T14:11:33;12.02;;;6.00;;
68821;SDS011;55834;50.870;4.606;2023-10-09T14:14:03;10.57;;;5.93;;
68821;SDS011;55834;50.870;4.606;2023-10-09T14:16:29;9.77;;;5.63;;
68821;SDS011;55834;50.870;4.606;2023-10-09T14:18:58;15.68;;;5.85;;
68821;SDS011;55834;50.870;4.606;2023-10-09T14:21:32;14.18;;;6.72;;
68821;SDS011;55834;50.870;4.606;2023-10-09T14:24:03;9.68;;;6.05;;
68821;SDS011;55834;50.870;4.606;2023-10-09T14:26:40;10.15;;;5.43;;
68821;SDS011;55834;50.870;4.606;2023-10-09T14:29:12;14.25;;;5.97;;
68821;SDS011;55834;50.870;4.606;2023-10-09T14:31:44;11.25;;;6.50;;
68821;SDS011;55834;50.870;4.606;2023-10-09T14:34:14;13.52;;;5.90;;
68821;SDS011;55834;50.870;4.606;2023-10-09T14:36:39;10.77;;;6.82;;
68821;SDS011;55834;50.870;4.606;2023-10-09T14:39:08;13.43;;;6.90;;
68821;SDS011;55834;50.870;4.606;2023-10-09T14:41:38;9.75;;;5.97;;
68821;SDS011;55834;50.870;4.606;2023-10-09T14:44:05;7.85;;;5.60;;
68821;SDS011;55834;50.870;4.606;2023-10-09T14:46:31;12.80;;;6.18;;
68821;SDS011;55834;50.870;4.606;2023-10-09T14:48:56;11.97;;;6.93;;
68821;SDS011;55834;50.870;4.606;2023-10-09T14:51:22;7.63;;;4.93;;
68821;SDS011;55834;50.870;4.606;2023-10-09T14:53:57;11.23;;;7.20;;
68821;SDS011;55834;50.870;4.606;2023-10-09T14:56:26;12.68;;;6.00;;
68821;SDS011;55834;50.870;4.606;2023-10-09T14:58:58;12.77;;;6.30;;
68821;SDS011;55834;50.870;4.606;2023-10-09T15:01:27;10.32;;;5.53;;
68821;SDS011;55834;50.870;4.606;2023-10-09T15:03:59;10.95;;;5.28;;
68821;SDS011;55834;50.870;4.606;2023-10-09T15:06:27;8.75;;;5.22;;
68821;SDS011;55834;50.870;4.606;2023-10-09T15:08:55;8.15;;;5.70;;
68821;SDS011;55834;50.870;4.606;2023-10-09T15:11:21;8.23;;;5.50;;
68821;SDS011;55834;50.870;4.606;2023-10-09T15:13:57;8.48;;;4.47;;
68821;SDS011;55834;50.870;4.606;2023-10-09T15:16:24;10.55;;;5.28;;
68821;SDS011;55834;50.870;4.606;2023-10-09T15:18:52;8.52;;;5.72;;
68821;SDS011;55834;50.870;4.606;2023-10-09T15:21:22;10.55;;;5.30;;
68821;SDS011;55834;50.870;4.606;2023-10-09T15:23:51;12.38;;;6.97;;
68821;SDS011;55834;50.870;4.606;2023-10-09T15:26:20;9.68;;;6.20;;
68821;SDS011;55834;50.870;4.606;2023-10-09T15:31:14;7.55;;;4.95;;
68821;SDS011;55834;50.870;4.606;2023-10-09T15:33:41;8.02;;;4.88;;
68821;SDS011;55834;50.870;4.606;2023-10-09T15:36:12;7.45;;;4.88;;
68821;SDS011;55834;50.870;4.606;2023-10-09T15:38:38;9.07;;;5.45;;
68821;SDS011;55834;50.870;4.606;2023-10-09T15:41:04;9.50;;;4.65;;
68821;SDS011;55834;50.870;4.606;2023-10-09T15:43:31;10.63;;;5.97;;
68821;SDS011;55834;50.870;4.606;2023-10-09T15:45:58;9.07;;;6.03;;
68821;SDS011;55834;50.870;4.606;2023-10-09T15:48:24;9.50;;;5.25;;
68821;SDS011;55834;50.870;4.606;2023-10-09T15:50:49;8.73;;;5.40;;
68821;SDS011;55834;50.870;4.606;2023-10-09T15:53:16;8.68;;;5.20;;
68821;SDS011;55834;50.870;4.606;2023-10-09T15:55:46;22.85;;;5.47;;
68821;SDS011;55834;50.870;4.606;2023-10-09T15:58:16;78.43;;;12.25;;
68821;SDS011;55834;50.870;4.606;2023-10-09T16:00:43;41.90;;;10.07;;
68821;SDS011;55834;50.870;4.606;2023-10-09T16:03:11;29.23;;;7.38;;
68821;SDS011;55834;50.870;4.606;2023-10-09T16:05:39;14.27;;;5.18;;
68821;SDS011;55834;50.870;4.606;2023-10-09T16:08:05;9.75;;;4.03;;
68821;SDS011;55834;50.870;4.606;2023-10-09T16:10:32;10.52;;;5.72;;
68821;SDS011;55834;50.870;4.606;2023-10-09T16:12:59;8.82;;;4.22;;
68821;SDS011;55834;50.870;4.606;2023-10-09T16:15:25;11.48;;;5.30;;